DLH446 EDDF-KDEN
Flight info
| Callsign | DLH446 |
|---|---|
| Flight time | N/A |
| Altitude | 36000 |
| Route | OBOKA3W OBOKA Z28 DIBIR DCT BUDIP DCT MIMVA L602 EMLON M79 TENDO DCT ASLIB/N0482F380 DCT TRN DCT AMCON DCT AMLAD DCT SUNOT/M085F390 DCT 58N020W 58N030W 58N040W 57N050W DCT HOIST/N0494F400 DCT JOVIE DCT PELEE DCT MISAX DCT KP21G DCT KP15E DCT KP09C DCT KP90A DCT KD78Y DCT NYTRO AALLE4 |
| Aircraft | A359/H-SADE2E3GHIJ1J2J3J4J5M1P2RWXYZ/LB1D1 |
Departure
| Time | N/A |
|---|---|
| Airport | Frankfurt Main Airport (EDDF) |
Arrival
| Time | 2026-05-05 07:13 |
|---|---|
| Airport | Denver International Airport (KDEN) |
| Time | Latitude | Longitude | Altitude | Speed | Heading |
|---|---|---|---|---|---|
| 2026-05-05 05:02 | 50.31214 | -90.40245 | 39641 ft | 480 kts | 234° |
| 2026-05-05 05:03 | 50.27257 | -90.48648 | 39643 ft | 480 kts | 235° |
| 2026-05-05 05:03 | 50.23288 | -90.57050 | 39655 ft | 481 kts | 234° |
| 2026-05-05 05:04 | 50.19337 | -90.65385 | 39647 ft | 481 kts | 234° |
| 2026-05-05 05:04 | 50.15352 | -90.73765 | 39660 ft | 480 kts | 234° |
| 2026-05-05 05:05 | 50.11365 | -90.82122 | 39664 ft | 480 kts | 234° |
| 2026-05-05 05:05 | 50.07367 | -90.90476 | 39664 ft | 480 kts | 234° |
| 2026-05-05 05:06 | 50.03391 | -90.98758 | 39673 ft | 481 kts | 234° |
| 2026-05-05 05:06 | 49.99375 | -91.07098 | 39675 ft | 481 kts | 234° |
| 2026-05-05 05:07 | 49.95355 | -91.15419 | 39678 ft | 481 kts | 234° |
| 2026-05-05 05:07 | 49.91338 | -91.23707 | 39682 ft | 480 kts | 234° |
| 2026-05-05 05:08 | 49.87312 | -91.31988 | 39691 ft | 480 kts | 234° |
| 2026-05-05 05:08 | 49.83284 | -91.40246 | 39695 ft | 480 kts | 234° |
| 2026-05-05 05:09 | 49.79243 | -91.48507 | 39702 ft | 481 kts | 234° |
| 2026-05-05 05:09 | 49.75223 | -91.56700 | 39703 ft | 481 kts | 234° |
| 2026-05-05 05:10 | 49.71170 | -91.64933 | 39709 ft | 480 kts | 234° |
| 2026-05-05 05:10 | 49.67122 | -91.73130 | 39705 ft | 479 kts | 234° |
| 2026-05-05 05:11 | 49.63073 | -91.81305 | 39714 ft | 479 kts | 234° |
| 2026-05-05 05:11 | 49.59013 | -91.89478 | 39716 ft | 480 kts | 234° |
| 2026-05-05 05:12 | 49.54969 | -91.97592 | 39726 ft | 480 kts | 234° |
| 2026-05-05 05:12 | 49.50893 | -92.05745 | 39724 ft | 480 kts | 234° |
| 2026-05-05 05:13 | 49.46816 | -92.13874 | 39724 ft | 479 kts | 234° |
| 2026-05-05 05:13 | 49.42742 | -92.21975 | 39728 ft | 479 kts | 234° |
| 2026-05-05 05:14 | 49.38660 | -92.30066 | 39729 ft | 479 kts | 234° |
| 2026-05-05 05:14 | 49.34561 | -92.38166 | 39734 ft | 480 kts | 234° |
| 2026-05-05 05:15 | 49.30463 | -92.46239 | 39735 ft | 480 kts | 234° |
| 2026-05-05 05:15 | 49.26359 | -92.54300 | 39738 ft | 479 kts | 234° |
| 2026-05-05 05:16 | 49.22292 | -92.62263 | 39738 ft | 477 kts | 234° |
| 2026-05-05 05:16 | 49.18194 | -92.70263 | 39744 ft | 478 kts | 234° |
| 2026-05-05 05:17 | 49.14090 | -92.78252 | 39747 ft | 478 kts | 234° |
| 2026-05-05 05:17 | 49.09974 | -92.86241 | 39752 ft | 478 kts | 234° |
| 2026-05-05 05:18 | 49.05847 | -92.94227 | 39751 ft | 478 kts | 234° |
| 2026-05-05 05:18 | 49.01750 | -93.02128 | 39758 ft | 477 kts | 234° |
| 2026-05-05 05:19 | 48.97637 | -93.10037 | 39755 ft | 476 kts | 234° |
| 2026-05-05 05:19 | 48.93513 | -93.17948 | 39763 ft | 476 kts | 234° |
| 2026-05-05 05:20 | 48.89391 | -93.25830 | 39759 ft | 476 kts | 234° |
| 2026-05-05 05:20 | 48.85255 | -93.33714 | 39761 ft | 477 kts | 233° |
| 2026-05-05 05:21 | 48.81141 | -93.41534 | 39756 ft | 477 kts | 233° |
| 2026-05-05 05:21 | 48.76999 | -93.49384 | 39758 ft | 477 kts | 233° |
| 2026-05-05 05:22 | 48.72846 | -93.57232 | 39754 ft | 478 kts | 233° |
| 2026-05-05 05:22 | 48.68677 | -93.65088 | 39756 ft | 478 kts | 233° |
| 2026-05-05 05:23 | 48.64502 | -93.72931 | 39765 ft | 478 kts | 233° |
| 2026-05-05 05:23 | 48.60325 | -93.80755 | 39791 ft | 478 kts | 233° |
| 2026-05-05 05:24 | 48.56168 | -93.88517 | 39801 ft | 477 kts | 233° |
| 2026-05-05 05:24 | 48.52001 | -93.96276 | 39794 ft | 475 kts | 233° |
| 2026-05-05 05:25 | 48.47874 | -94.04071 | 39815 ft | 475 kts | 236° |
| 2026-05-05 05:25 | 48.44024 | -94.12084 | 39815 ft | 474 kts | 237° |
| 2026-05-05 05:26 | 48.40199 | -94.20177 | 39809 ft | 474 kts | 237° |
| 2026-05-05 05:26 | 48.36336 | -94.28212 | 39813 ft | 474 kts | 236° |
| 2026-05-05 05:27 | 48.32438 | -94.36217 | 39809 ft | 473 kts | 236° |
| 2026-05-05 05:27 | 48.26582 | -94.48173 | 39802 ft | 473 kts | 236° |
| 2026-05-05 05:28 | 48.22702 | -94.56069 | 39798 ft | 473 kts | 236° |
| 2026-05-05 05:28 | 48.18794 | -94.64000 | 39794 ft | 473 kts | 236° |
| 2026-05-05 05:29 | 48.14880 | -94.71923 | 39841 ft | 473 kts | 236° |
| 2026-05-05 05:29 | 48.10959 | -94.79837 | 39848 ft | 473 kts | 236° |
| 2026-05-05 05:30 | 48.07044 | -94.87713 | 39853 ft | 471 kts | 236° |
| 2026-05-05 05:30 | 48.03130 | -94.95567 | 39865 ft | 471 kts | 236° |
| 2026-05-05 05:31 | 47.99209 | -95.03415 | 39865 ft | 471 kts | 236° |
| 2026-05-05 05:31 | 47.95282 | -95.11248 | 39861 ft | 471 kts | 236° |
| 2026-05-05 05:32 | 47.91344 | -95.19082 | 39863 ft | 472 kts | 236° |
| 2026-05-05 05:32 | 47.87397 | -95.26911 | 39859 ft | 471 kts | 236° |
| 2026-05-05 05:33 | 47.83487 | -95.34643 | 39866 ft | 470 kts | 236° |
| 2026-05-05 05:33 | 47.79550 | -95.42409 | 39866 ft | 470 kts | 236° |
| 2026-05-05 05:34 | 47.75603 | -95.50172 | 39863 ft | 470 kts | 236° |
| 2026-05-05 05:34 | 47.71654 | -95.57916 | 39879 ft | 470 kts | 236° |
| 2026-05-05 05:35 | 47.67699 | -95.65650 | 39851 ft | 470 kts | 236° |
| 2026-05-05 05:35 | 47.63732 | -95.73386 | 39846 ft | 469 kts | 236° |
| 2026-05-05 05:36 | 47.59802 | -95.81027 | 39851 ft | 469 kts | 236° |
| 2026-05-05 05:36 | 47.55846 | -95.88700 | 39845 ft | 468 kts | 236° |
| 2026-05-05 05:37 | 47.51875 | -95.96379 | 39854 ft | 469 kts | 236° |
| 2026-05-05 05:37 | 47.47936 | -96.04069 | 39865 ft | 468 kts | 237° |
| 2026-05-05 05:38 | 47.44163 | -96.11905 | 39870 ft | 468 kts | 238° |
| 2026-05-05 05:38 | 47.40413 | -96.19760 | 39882 ft | 467 kts | 238° |
| 2026-05-05 05:39 | 47.36667 | -96.27514 | 39879 ft | 467 kts | 238° |
| 2026-05-05 05:39 | 47.32876 | -96.35297 | 39889 ft | 467 kts | 238° |
| 2026-05-05 05:40 | 47.29076 | -96.43062 | 39889 ft | 467 kts | 238° |
| 2026-05-05 05:40 | 47.25270 | -96.50820 | 39892 ft | 467 kts | 238° |
| 2026-05-05 05:41 | 47.22099 | -96.57268 | 39892 ft | 467 kts | 238° |
| 2026-05-05 05:41 | 47.17660 | -96.66272 | 39889 ft | 467 kts | 238° |
| 2026-05-05 05:42 | 47.14485 | -96.72693 | 39896 ft | 466 kts | 238° |
| 2026-05-05 05:42 | 47.10666 | -96.80397 | 39885 ft | 466 kts | 238° |
| 2026-05-05 05:43 | 47.06838 | -96.88098 | 39884 ft | 466 kts | 238° |
| 2026-05-05 05:43 | 47.03009 | -96.95780 | 39883 ft | 466 kts | 238° |
| 2026-05-05 05:44 | 46.99199 | -97.03403 | 39881 ft | 466 kts | 238° |
| 2026-05-05 05:44 | 46.95353 | -97.11076 | 39875 ft | 467 kts | 238° |
| 2026-05-05 05:45 | 46.91514 | -97.18713 | 39895 ft | 465 kts | 237° |
| 2026-05-05 05:45 | 46.87671 | -97.26338 | 39896 ft | 465 kts | 237° |
| 2026-05-05 05:46 | 46.83825 | -97.33950 | 39903 ft | 465 kts | 237° |
| 2026-05-05 05:46 | 46.79970 | -97.41555 | 39905 ft | 466 kts | 237° |
| 2026-05-05 05:47 | 46.76134 | -97.49105 | 39913 ft | 466 kts | 237° |
| 2026-05-05 05:47 | 46.72263 | -97.56702 | 39906 ft | 466 kts | 237° |
| 2026-05-05 05:48 | 46.68395 | -97.64271 | 39909 ft | 464 kts | 237° |
| 2026-05-05 05:48 | 46.64534 | -97.71806 | 39908 ft | 464 kts | 237° |
| 2026-05-05 05:49 | 46.60669 | -97.79330 | 39908 ft | 464 kts | 237° |
| 2026-05-05 05:49 | 46.56826 | -97.86793 | 39909 ft | 464 kts | 237° |
| 2026-05-05 05:50 | 46.52957 | -97.94284 | 39905 ft | 464 kts | 237° |
| 2026-05-05 05:50 | 46.48822 | -98.01515 | 39908 ft | 468 kts | 230° |
| 2026-05-05 05:51 | 46.44161 | -98.08161 | 39906 ft | 470 kts | 229° |
| 2026-05-05 05:51 | 46.39418 | -98.14678 | 39909 ft | 470 kts | 228° |
| 2026-05-05 05:52 | 46.34660 | -98.21184 | 39913 ft | 470 kts | 228° |
| 2026-05-05 05:52 | 46.29913 | -98.27686 | 39915 ft | 470 kts | 228° |
| 2026-05-05 05:53 | 46.25199 | -98.34141 | 39910 ft | 469 kts | 228° |
| 2026-05-05 05:53 | 46.20456 | -98.40621 | 39908 ft | 468 kts | 229° |
| 2026-05-05 05:54 | 46.15718 | -98.47079 | 39925 ft | 468 kts | 228° |
| 2026-05-05 05:54 | 46.10985 | -98.53515 | 39925 ft | 468 kts | 228° |
| 2026-05-05 05:55 | 46.06247 | -98.59940 | 39925 ft | 468 kts | 228° |
| 2026-05-05 05:55 | 46.01536 | -98.66311 | 39922 ft | 467 kts | 228° |
| 2026-05-05 05:56 | 45.96803 | -98.72698 | 39921 ft | 466 kts | 228° |
| 2026-05-05 05:56 | 45.92055 | -98.79089 | 39933 ft | 466 kts | 228° |
| 2026-05-05 05:57 | 45.87317 | -98.85452 | 39931 ft | 466 kts | 228° |
| 2026-05-05 05:57 | 45.82570 | -98.91811 | 39933 ft | 466 kts | 228° |
| 2026-05-05 05:58 | 45.77823 | -98.98152 | 39927 ft | 465 kts | 228° |
| 2026-05-05 05:58 | 45.73113 | -99.04431 | 39931 ft | 465 kts | 228° |
| 2026-05-05 05:59 | 45.68374 | -99.10733 | 39934 ft | 465 kts | 228° |
| 2026-05-05 05:59 | 45.63626 | -99.17032 | 39938 ft | 465 kts | 228° |
| 2026-05-05 06:00 | 45.58877 | -99.23316 | 39919 ft | 465 kts | 229° |
| 2026-05-05 06:00 | 45.54170 | -99.29529 | 39941 ft | 463 kts | 229° |
| 2026-05-05 06:01 | 45.49440 | -99.35759 | 39939 ft | 463 kts | 228° |
| 2026-05-05 06:01 | 45.44700 | -99.41988 | 39941 ft | 463 kts | 228° |
| 2026-05-05 06:02 | 45.39953 | -99.48210 | 39941 ft | 463 kts | 228° |
| 2026-05-05 06:02 | 45.35205 | -99.54417 | 39946 ft | 462 kts | 229° |
| 2026-05-05 06:03 | 45.30480 | -99.60577 | 39946 ft | 460 kts | 229° |
| 2026-05-05 06:03 | 45.25768 | -99.66711 | 39950 ft | 460 kts | 229° |
| 2026-05-05 06:04 | 45.21075 | -99.72807 | 39951 ft | 461 kts | 229° |
| 2026-05-05 06:04 | 45.16340 | -99.78941 | 39955 ft | 461 kts | 228° |
| 2026-05-05 06:05 | 45.11611 | -99.85048 | 39962 ft | 458 kts | 229° |
| 2026-05-05 06:05 | 45.06908 | -99.91108 | 39971 ft | 456 kts | 229° |
| 2026-05-05 06:06 | 45.02203 | -99.97162 | 39971 ft | 456 kts | 229° |
| 2026-05-05 06:06 | 44.97286 | -100.02821 | 39962 ft | 461 kts | 224° |
| 2026-05-05 06:07 | 44.92135 | -100.08235 | 39951 ft | 461 kts | 224° |
| 2026-05-05 06:07 | 44.86970 | -100.13574 | 39958 ft | 459 kts | 223° |
| 2026-05-05 06:08 | 44.81817 | -100.18896 | 39959 ft | 459 kts | 223° |
| 2026-05-05 06:08 | 44.76665 | -100.24220 | 39959 ft | 459 kts | 224° |
| 2026-05-05 06:09 | 44.71519 | -100.29530 | 39934 ft | 458 kts | 224° |
| 2026-05-05 06:09 | 44.66374 | -100.34827 | 39958 ft | 459 kts | 224° |
| 2026-05-05 06:10 | 44.61221 | -100.40121 | 39951 ft | 459 kts | 224° |
| 2026-05-05 06:10 | 44.56103 | -100.45367 | 39952 ft | 459 kts | 224° |
| 2026-05-05 06:11 | 44.50941 | -100.50646 | 39925 ft | 458 kts | 224° |
| 2026-05-05 06:11 | 44.45779 | -100.55914 | 39956 ft | 459 kts | 224° |
| 2026-05-05 06:12 | 44.40609 | -100.61178 | 39957 ft | 460 kts | 224° |
| 2026-05-05 06:12 | 44.35425 | -100.66445 | 39958 ft | 461 kts | 224° |
| 2026-05-05 06:13 | 44.30230 | -100.71710 | 39954 ft | 461 kts | 224° |
| 2026-05-05 06:13 | 44.25076 | -100.76920 | 39955 ft | 461 kts | 224° |
| 2026-05-05 06:14 | 44.19883 | -100.82160 | 39955 ft | 461 kts | 224° |
| 2026-05-05 06:14 | 44.14684 | -100.87395 | 39955 ft | 461 kts | 223° |
| 2026-05-05 06:15 | 44.09490 | -100.92612 | 39958 ft | 461 kts | 223° |
| 2026-05-05 06:15 | 44.04294 | -100.97819 | 39956 ft | 459 kts | 223° |
| 2026-05-05 06:16 | 43.99109 | -101.03002 | 39957 ft | 459 kts | 223° |
| 2026-05-05 06:16 | 43.93925 | -101.08176 | 39958 ft | 459 kts | 223° |
| 2026-05-05 06:17 | 43.88766 | -101.13314 | 39955 ft | 459 kts | 223° |
| 2026-05-05 06:17 | 43.83582 | -101.18463 | 39953 ft | 457 kts | 223° |
| 2026-05-05 06:18 | 43.78422 | -101.23577 | 39958 ft | 456 kts | 223° |
| 2026-05-05 06:18 | 43.73254 | -101.28692 | 39957 ft | 455 kts | 223° |
| 2026-05-05 06:19 | 43.68097 | -101.33784 | 39962 ft | 455 kts | 223° |
| 2026-05-05 06:19 | 43.62941 | -101.38861 | 39955 ft | 453 kts | 223° |
| 2026-05-05 06:20 | 43.57863 | -101.43845 | 39961 ft | 448 kts | 223° |
| 2026-05-05 06:20 | 43.52786 | -101.48826 | 39971 ft | 448 kts | 223° |
| 2026-05-05 06:21 | 43.47710 | -101.53799 | 39978 ft | 448 kts | 223° |
| 2026-05-05 06:21 | 43.42616 | -101.58775 | 39973 ft | 447 kts | 224° |
| 2026-05-05 06:22 | 43.37572 | -101.63685 | 39985 ft | 442 kts | 224° |
| 2026-05-05 06:22 | 43.32594 | -101.68526 | 39965 ft | 440 kts | 224° |
| 2026-05-05 06:23 | 43.27602 | -101.73375 | 39982 ft | 439 kts | 224° |
| 2026-05-05 06:23 | 43.22607 | -101.78215 | 39982 ft | 438 kts | 224° |
| 2026-05-05 06:24 | 43.17628 | -101.83027 | 39982 ft | 437 kts | 224° |
| 2026-05-05 06:24 | 43.12693 | -101.87788 | 39982 ft | 436 kts | 224° |
| 2026-05-05 06:25 | 43.07728 | -101.92570 | 39981 ft | 436 kts | 224° |
| 2026-05-05 06:25 | 43.02761 | -101.97344 | 39977 ft | 436 kts | 224° |
| 2026-05-05 06:26 | 42.97744 | -102.02044 | 39964 ft | 440 kts | 221° |
| 2026-05-05 06:26 | 42.92488 | -102.06322 | 39963 ft | 439 kts | 220° |
| 2026-05-05 06:27 | 42.84667 | -102.12733 | 39981 ft | 436 kts | 221° |
| 2026-05-05 06:28 | 42.79507 | -102.16991 | 39980 ft | 436 kts | 221° |
| 2026-05-05 06:28 | 42.74322 | -102.21266 | 39960 ft | 433 kts | 221° |
| 2026-05-05 06:29 | 42.69179 | -102.25499 | 39964 ft | 430 kts | 221° |
| 2026-05-05 06:29 | 42.64057 | -102.29712 | 39963 ft | 430 kts | 221° |
| 2026-05-05 06:30 | 42.59796 | -102.33209 | 39964 ft | 430 kts | 221° |
| 2026-05-05 06:30 | 42.54669 | -102.37410 | 39951 ft | 430 kts | 221° |
| 2026-05-05 06:31 | 42.48752 | -102.42242 | 39961 ft | 424 kts | 221° |
| 2026-05-05 06:31 | 42.44515 | -102.45700 | 39966 ft | 424 kts | 221° |
| 2026-05-05 06:32 | 42.39469 | -102.49811 | 39973 ft | 424 kts | 221° |
| 2026-05-05 06:32 | 42.34449 | -102.53893 | 39971 ft | 423 kts | 221° |
| 2026-05-05 06:33 | 42.29403 | -102.57986 | 39969 ft | 422 kts | 221° |
| 2026-05-05 06:33 | 42.24376 | -102.62056 | 39970 ft | 420 kts | 221° |
| 2026-05-05 06:34 | 42.19355 | -102.66116 | 39976 ft | 420 kts | 221° |
| 2026-05-05 06:34 | 42.14331 | -102.70170 | 40004 ft | 420 kts | 221° |
| 2026-05-05 06:35 | 42.09338 | -102.74191 | 40007 ft | 420 kts | 221° |
| 2026-05-05 06:35 | 42.04318 | -102.78228 | 40004 ft | 420 kts | 221° |
| 2026-05-05 06:36 | 41.99293 | -102.82259 | 40009 ft | 420 kts | 221° |
| 2026-05-05 06:36 | 41.94300 | -102.86257 | 40004 ft | 420 kts | 221° |
| 2026-05-05 06:37 | 41.89277 | -102.90271 | 39986 ft | 420 kts | 221° |
| 2026-05-05 06:37 | 41.84251 | -102.94282 | 39973 ft | 420 kts | 221° |
| 2026-05-05 06:38 | 41.79219 | -102.98290 | 39953 ft | 421 kts | 221° |
| 2026-05-05 06:38 | 41.74177 | -103.02298 | 39934 ft | 421 kts | 221° |
| 2026-05-05 06:39 | 41.69171 | -103.06269 | 39911 ft | 421 kts | 221° |
| 2026-05-05 06:39 | 41.64119 | -103.10270 | 39905 ft | 421 kts | 221° |
| 2026-05-05 06:40 | 41.58873 | -103.13941 | 39884 ft | 435 kts | 211° |
| 2026-05-05 06:40 | 41.55934 | -103.15106 | 39906 ft | 448 kts | 203° |
| 2026-05-05 06:40 | 41.52834 | -103.15644 | 39906 ft | 461 kts | 194° |
| 2026-05-05 06:41 | 41.46376 | -103.15892 | 39890 ft | 465 kts | 193° |
| 2026-05-05 06:41 | 41.43158 | -103.15983 | 39413 ft | 461 kts | 194° |
| 2026-05-05 06:41 | 41.39937 | -103.16088 | 38711 ft | 463 kts | 195° |
| 2026-05-05 06:41 | 41.36711 | -103.16203 | 37924 ft | 463 kts | 194° |
| 2026-05-05 06:42 | 41.33477 | -103.16324 | 37038 ft | 466 kts | 194° |
| 2026-05-05 06:42 | 41.30233 | -103.16449 | 36338 ft | 466 kts | 193° |
| 2026-05-05 06:42 | 41.26995 | -103.16567 | 35672 ft | 465 kts | 193° |
| 2026-05-05 06:42 | 41.23761 | -103.16683 | 34997 ft | 465 kts | 192° |
| 2026-05-05 06:43 | 41.20534 | -103.16799 | 34438 ft | 462 kts | 193° |
| 2026-05-05 06:43 | 41.17323 | -103.16914 | 33891 ft | 459 kts | 192° |
| 2026-05-05 06:43 | 41.14140 | -103.17031 | 33308 ft | 456 kts | 192° |
| 2026-05-05 06:43 | 41.10976 | -103.17146 | 32841 ft | 450 kts | 191° |
| 2026-05-05 06:44 | 41.07888 | -103.17311 | 32518 ft | 437 kts | 194° |
| 2026-05-05 06:44 | 41.04986 | -103.17969 | 32028 ft | 421 kts | 204° |
| 2026-05-05 06:44 | 41.02288 | -103.19298 | 31615 ft | 407 kts | 214° |
| 2026-05-05 06:44 | 40.99870 | -103.21212 | 31230 ft | 404 kts | 223° |
| 2026-05-05 06:45 | 40.97613 | -103.23439 | 30842 ft | 405 kts | 224° |
| 2026-05-05 06:45 | 40.95376 | -103.25713 | 30460 ft | 405 kts | 223° |
| 2026-05-05 06:45 | 40.93129 | -103.27991 | 30069 ft | 406 kts | 223° |
| 2026-05-05 06:45 | 40.90883 | -103.30259 | 29658 ft | 406 kts | 223° |
| 2026-05-05 06:46 | 40.88638 | -103.32516 | 29259 ft | 405 kts | 223° |
| 2026-05-05 06:46 | 40.86401 | -103.34760 | 28877 ft | 403 kts | 223° |
| 2026-05-05 06:46 | 40.84174 | -103.36992 | 28495 ft | 401 kts | 222° |
| 2026-05-05 06:46 | 40.81956 | -103.39212 | 28112 ft | 399 kts | 222° |
| 2026-05-05 06:47 | 40.79778 | -103.41392 | 27739 ft | 397 kts | 222° |
| 2026-05-05 06:47 | 40.77583 | -103.43586 | 27428 ft | 395 kts | 222° |
| 2026-05-05 06:47 | 40.75398 | -103.45761 | 27048 ft | 392 kts | 222° |
| 2026-05-05 06:47 | 40.73222 | -103.47923 | 26688 ft | 390 kts | 222° |
| 2026-05-05 06:48 | 40.71057 | -103.50076 | 26303 ft | 389 kts | 222° |
| 2026-05-05 06:48 | 40.68903 | -103.52216 | 25941 ft | 388 kts | 221° |
| 2026-05-05 06:48 | 40.66755 | -103.54349 | 25567 ft | 386 kts | 221° |
| 2026-05-05 06:48 | 40.64612 | -103.56474 | 25207 ft | 385 kts | 221° |
| 2026-05-05 06:49 | 40.62479 | -103.58592 | 24833 ft | 383 kts | 221° |
| 2026-05-05 06:49 | 40.60358 | -103.60712 | 24461 ft | 381 kts | 221° |
| 2026-05-05 06:49 | 40.58252 | -103.62821 | 24097 ft | 380 kts | 221° |
| 2026-05-05 06:49 | 40.56150 | -103.64922 | 23736 ft | 379 kts | 221° |
| 2026-05-05 06:50 | 40.54049 | -103.67020 | 23368 ft | 377 kts | 221° |
| 2026-05-05 06:50 | 40.51960 | -103.69104 | 22982 ft | 376 kts | 221° |
| 2026-05-05 06:50 | 40.49911 | -103.71146 | 22655 ft | 374 kts | 221° |
| 2026-05-05 06:50 | 40.47842 | -103.73205 | 22315 ft | 372 kts | 221° |
| 2026-05-05 06:51 | 40.45832 | -103.75391 | 21980 ft | 367 kts | 228° |
| 2026-05-05 06:51 | 40.44291 | -103.77964 | 21690 ft | 361 kts | 240° |
| 2026-05-05 06:51 | 40.42976 | -103.80768 | 21416 ft | 360 kts | 242° |
| 2026-05-05 06:51 | 40.41699 | -103.83583 | 21145 ft | 359 kts | 242° |
| 2026-05-05 06:52 | 40.40418 | -103.86399 | 20870 ft | 358 kts | 241° |
| 2026-05-05 06:52 | 40.39139 | -103.89201 | 20604 ft | 357 kts | 241° |
| 2026-05-05 06:52 | 40.37863 | -103.91986 | 20318 ft | 356 kts | 241° |
| 2026-05-05 06:52 | 40.36594 | -103.94744 | 20095 ft | 347 kts | 241° |
| 2026-05-05 06:53 | 40.35363 | -103.97416 | 19902 ft | 336 kts | 241° |
| 2026-05-05 06:53 | 40.34170 | -104.00004 | 19672 ft | 326 kts | 241° |
| 2026-05-05 06:53 | 40.33012 | -104.02515 | 19418 ft | 318 kts | 241° |
| 2026-05-05 06:53 | 40.31854 | -104.04912 | 19178 ft | 314 kts | 237° |
| 2026-05-05 06:54 | 40.30338 | -104.07032 | 18742 ft | 317 kts | 224° |
| 2026-05-05 06:54 | 40.28667 | -104.08865 | 18357 ft | 316 kts | 222° |
| 2026-05-05 06:54 | 40.26957 | -104.10674 | 18049 ft | 315 kts | 222° |
| 2026-05-05 06:54 | 40.25257 | -104.12476 | 17745 ft | 314 kts | 222° |
| 2026-05-05 06:55 | 40.23568 | -104.14273 | 17470 ft | 312 kts | 222° |
| 2026-05-05 06:55 | 40.21884 | -104.16068 | 17206 ft | 311 kts | 222° |
| 2026-05-05 06:55 | 40.20201 | -104.17864 | 16951 ft | 310 kts | 222° |
| 2026-05-05 06:55 | 40.18530 | -104.19647 | 16689 ft | 309 kts | 222° |
| 2026-05-05 06:56 | 40.16866 | -104.21423 | 16419 ft | 308 kts | 222° |
| 2026-05-05 06:56 | 40.15206 | -104.23195 | 16153 ft | 308 kts | 222° |
| 2026-05-05 06:56 | 40.13553 | -104.24964 | 15888 ft | 307 kts | 222° |
| 2026-05-05 06:56 | 40.11896 | -104.26729 | 15623 ft | 306 kts | 221° |
| 2026-05-05 06:57 | 40.10271 | -104.28455 | 15354 ft | 305 kts | 221° |
| 2026-05-05 06:57 | 40.08660 | -104.30166 | 15092 ft | 304 kts | 221° |
| 2026-05-05 06:57 | 40.07021 | -104.31908 | 14849 ft | 302 kts | 221° |
| 2026-05-05 06:57 | 40.05387 | -104.33643 | 14603 ft | 301 kts | 221° |
| 2026-05-05 06:58 | 40.03764 | -104.35365 | 14348 ft | 300 kts | 221° |
| 2026-05-05 06:58 | 40.02154 | -104.37072 | 14164 ft | 293 kts | 221° |
| 2026-05-05 06:58 | 40.00600 | -104.38717 | 14018 ft | 282 kts | 222° |
| 2026-05-05 06:58 | 39.99103 | -104.40299 | 13848 ft | 273 kts | 222° |
| 2026-05-05 06:59 | 39.97651 | -104.41836 | 13645 ft | 265 kts | 222° |
| 2026-05-05 06:59 | 39.96242 | -104.43332 | 13414 ft | 257 kts | 223° |
| 2026-05-05 06:59 | 39.94890 | -104.44773 | 13185 ft | 250 kts | 222° |
| 2026-05-05 06:59 | 39.93555 | -104.46188 | 12954 ft | 243 kts | 222° |
| 2026-05-05 07:00 | 39.92258 | -104.47563 | 12727 ft | 237 kts | 221° |
| 2026-05-05 07:00 | 39.90972 | -104.48862 | 12490 ft | 231 kts | 216° |
| 2026-05-05 07:00 | 39.89535 | -104.49736 | 12263 ft | 227 kts | 198° |
| 2026-05-05 07:00 | 39.87976 | -104.49991 | 12039 ft | 224 kts | 185° |
| 2026-05-05 07:01 | 39.86439 | -104.50030 | 11820 ft | 218 kts | 184° |
| 2026-05-05 07:01 | 39.84962 | -104.50061 | 11595 ft | 212 kts | 184° |
| 2026-05-05 07:01 | 39.83505 | -104.50096 | 11355 ft | 206 kts | 184° |
| 2026-05-05 07:01 | 39.82086 | -104.50139 | 11137 ft | 201 kts | 184° |
| 2026-05-05 07:02 | 39.80706 | -104.50188 | 10900 ft | 195 kts | 184° |
| 2026-05-05 07:02 | 39.79362 | -104.50247 | 10682 ft | 192 kts | 184° |
| 2026-05-05 07:02 | 39.78028 | -104.50315 | 10469 ft | 191 kts | 184° |
| 2026-05-05 07:02 | 39.76704 | -104.50395 | 10246 ft | 190 kts | 184° |
| 2026-05-05 07:03 | 39.75389 | -104.50486 | 10037 ft | 188 kts | 184° |
| 2026-05-05 07:03 | 39.74084 | -104.50586 | 9822 ft | 187 kts | 184° |
| 2026-05-05 07:03 | 39.72806 | -104.50696 | 9594 ft | 186 kts | 184° |
| 2026-05-05 07:03 | 39.71515 | -104.50813 | 9389 ft | 186 kts | 184° |
| 2026-05-05 07:04 | 39.70222 | -104.50932 | 9254 ft | 187 kts | 184° |
| 2026-05-05 07:04 | 39.68928 | -104.51054 | 9139 ft | 186 kts | 184° |
| 2026-05-05 07:04 | 39.67631 | -104.51180 | 9124 ft | 187 kts | 184° |
| 2026-05-05 07:04 | 39.66332 | -104.51307 | 9118 ft | 187 kts | 184° |
| 2026-05-05 07:05 | 39.65037 | -104.51434 | 9112 ft | 186 kts | 184° |
| 2026-05-05 07:05 | 39.63747 | -104.51561 | 9107 ft | 186 kts | 184° |
| 2026-05-05 07:05 | 39.62453 | -104.51687 | 9096 ft | 186 kts | 184° |
| 2026-05-05 07:05 | 39.61161 | -104.51812 | 9085 ft | 186 kts | 184° |
| 2026-05-05 07:06 | 39.59864 | -104.51935 | 9077 ft | 186 kts | 184° |
| 2026-05-05 07:06 | 39.58574 | -104.52099 | 9071 ft | 187 kts | 191° |
| 2026-05-05 07:06 | 39.57380 | -104.52702 | 9051 ft | 188 kts | 212° |
| 2026-05-05 07:06 | 39.56527 | -104.53976 | 9041 ft | 191 kts | 245° |
| 2026-05-05 07:07 | 39.56453 | -104.55683 | 9041 ft | 197 kts | 288° |
| 2026-05-05 07:07 | 39.57206 | -104.57171 | 9066 ft | 201 kts | 310° |
| 2026-05-05 07:07 | 39.58167 | -104.58507 | 9037 ft | 204 kts | 312° |
| 2026-05-05 07:07 | 39.59202 | -104.59765 | 8944 ft | 204 kts | 316° |
| 2026-05-05 07:08 | 39.60202 | -104.61071 | 8848 ft | 203 kts | 308° |
| 2026-05-05 07:08 | 39.61101 | -104.62483 | 8758 ft | 203 kts | 307° |
| 2026-05-05 07:08 | 39.62033 | -104.63861 | 8661 ft | 203 kts | 313° |
| 2026-05-05 07:08 | 39.63101 | -104.65032 | 8568 ft | 204 kts | 324° |
| 2026-05-05 07:09 | 39.64353 | -104.65877 | 8493 ft | 203 kts | 339° |
| 2026-05-05 07:09 | 39.65722 | -104.66255 | 8425 ft | 202 kts | 357° |
| 2026-05-05 07:09 | 39.67124 | -104.66242 | 8323 ft | 202 kts | 2° |
| 2026-05-05 07:09 | 39.68528 | -104.66204 | 8223 ft | 202 kts | 1° |
| 2026-05-05 07:10 | 39.69905 | -104.66193 | 8060 ft | 191 kts | 0° |
| 2026-05-05 07:10 | 39.71200 | -104.66195 | 7804 ft | 181 kts | 1° |
| 2026-05-05 07:10 | 39.72421 | -104.66184 | 7584 ft | 169 kts | 2° |
| 2026-05-05 07:10 | 39.73572 | -104.66175 | 7335 ft | 161 kts | 2° |
| 2026-05-05 07:11 | 39.74674 | -104.66153 | 7157 ft | 161 kts | 2° |
| 2026-05-05 07:11 | 39.75823 | -104.66138 | 6962 ft | 169 kts | 2° |
| 2026-05-05 07:11 | 39.77012 | -104.66132 | 6727 ft | 172 kts | 2° |
| 2026-05-05 07:11 | 39.78203 | -104.66112 | 6507 ft | 169 kts | 3° |
| 2026-05-05 07:12 | 39.79363 | -104.66095 | 6242 ft | 165 kts | 2° |
| 2026-05-05 07:12 | 39.80492 | -104.66083 | 5993 ft | 160 kts | 1° |
| 2026-05-05 07:12 | 39.81592 | -104.66075 | 5751 ft | 156 kts | 1° |
| 2026-05-05 07:12 | 39.82667 | -104.66062 | 5543 ft | 155 kts | 2° |
| 2026-05-05 07:13 | 39.83730 | -104.66050 | 5440 ft | 149 kts | 2° |
| 2026-05-05 07:13 | 39.84644 | -104.66033 | 5403 ft | 102 kts | 0° |
| 2026-05-05 07:13 | 39.85049 | -104.66041 | 5404 ft | 16 kts | 352° |
| 2026-05-05 07:13 | 39.85110 | -104.66053 | 5403 ft | 14 kts | 351° |
| 2026-05-05 07:14 | 39.85233 | -104.66111 | 5395 ft | 22 kts | 331° |
| 2026-05-05 07:14 | 39.85369 | -104.66210 | 5395 ft | 24 kts | 336° |
| 2026-05-05 07:14 | 39.85531 | -104.66238 | 5389 ft | 24 kts | 1° |
| 2026-05-05 07:14 | 39.85674 | -104.66308 | 5385 ft | 24 kts | 283° |
| 2026-05-05 07:15 | 39.85675 | -104.66512 | 5381 ft | 23 kts | 258° |
| 2026-05-05 07:15 | 39.85660 | -104.66715 | 5387 ft | 21 kts | 271° |
| 2026-05-05 07:15 | 39.85721 | -104.66871 | 5382 ft | 19 kts | 287° |
| 2026-05-05 07:15 | 39.85730 | -104.67040 | 5386 ft | 15 kts | 270° |
| 2026-05-05 07:16 | 39.85731 | -104.67140 | 5386 ft | 9 kts | 271° |
| 2026-05-05 07:16 | 39.85760 | -104.67195 | 5386 ft | 7 kts | 335° |
| 2026-05-05 07:16 | 39.85788 | -104.67202 | 5386 ft | 0 kts | 354° |
| 2026-05-05 07:16 | 39.85789 | -104.67202 | 5386 ft | 0 kts | 355° |
| 2026-05-05 07:17 | 39.85790 | -104.67202 | 5386 ft | 0 kts | 355° |
| 2026-05-05 07:17 | 39.85792 | -104.67203 | 5386 ft | 1 kts | 355° |
| 2026-05-05 07:17 | 39.85794 | -104.67203 | 5386 ft | 0 kts | 355° |
| 2026-05-05 07:17 | 39.85795 | -104.67203 | 5386 ft | 1 kts | 356° |
| 2026-05-05 07:18 | 39.85800 | -104.67203 | 5386 ft | 0 kts | 356° |
| 2026-05-05 07:18 | 39.85801 | -104.67203 | 5386 ft | 1 kts | 356° |
| 2026-05-05 07:18 | 39.85813 | -104.67204 | 5386 ft | 1 kts | 358° |
| 2026-05-05 07:18 | 39.85816 | -104.67204 | 5386 ft | 0 kts | 358° |
| 2026-05-05 07:19 | 39.85817 | -104.67204 | 5386 ft | 0 kts | 358° |